Time;durP1;ratioP1;P1;durP2;ratioP2;P2;SDS_P1;SDS_P2;PMS_P1;PMS_P2;Temp;Humidity;BMP_temperature;BMP_pressure;BME280_temperature;BME280_humidity;BME280_pressure;Samples;Min_cycle;Max_cycle;Signal;HPM_P1;HPM_P2
2022/05/20 00:01:19;;;;;;;;;;;;;;;10.78;67.53;101885.00;5117634;28;19977;-86
2022/05/20 00:03:47;;;;;;;;;;;;;;;10.85;67.53;101888.00;5123485;27;19920;-85
2022/05/20 00:06:20;;;;;;;;;;;;;;;10.95;67.35;101884.38;5089858;28;19927;-86
2022/05/20 00:08:45;;;;;;;;;;;;;;;11.01;67.11;101884.84;5094295;27;19935;-87
2022/05/20 00:11:12;;;;;;;;;;;;;;;11.02;67.00;101881.16;5100879;28;19927;-86
2022/05/20 00:13:38;;;;;;;;;;;;;;;10.97;67.21;101884.25;5110723;27;20379;-86
2022/05/20 00:16:05;;;;;;;;;;;;;;;11.04;67.33;101880.03;5123027;27;19924;-86
2022/05/20 00:18:30;;;;;;;;;;;;;;;11.13;66.71;101884.59;5114164;27;19920;-87
2022/05/20 00:21:18;;;;;;;;;;;;;;;11.14;66.86;101891.72;5114751;27;19930;-84
2022/05/20 00:24:09;;;;;;;;;;;;;;;11.09;67.23;101890.41;5112849;28;20452;-86
2022/05/20 00:26:35;;;;;;;;;;;;;;;11.09;67.47;101885.84;5134858;28;19919;-90
2022/05/20 00:29:06;;;;;;;;;;;;;;;11.12;67.47;101885.59;5116521;27;19920;-86
2022/05/20 00:31:38;;;;;;;;;;;;;;;11.15;67.45;101888.03;5130583;27;19926;-87
2022/05/20 00:34:08;;;;;;;;;;;;;;;11.15;67.78;101882.63;5096195;28;20323;-86
2022/05/20 00:36:36;;;;;;;;;;;;;;;11.16;67.68;101884.31;5130098;28;19923;-87
2022/05/20 00:39:06;;;;;;;;;;;;;;;11.09;68.27;101882.31;5120664;27;19942;-86
2022/05/20 00:41:33;;;;;;;;;;;;;;;11.00;68.80;101886.66;5109419;27;19915;-86
2022/05/20 00:44:01;;;;;;;;;;;;;;;11.04;68.66;101877.34;5119463;27;19919;-87
2022/05/20 00:46:28;;;;;;;;;;;;;;;11.14;68.20;101875.56;5124400;27;20376;-86
2022/05/20 00:49:07;;;;;;;;;;;;;;;11.12;68.47;101872.16;5097133;27;19948;-87
2022/05/20 00:51:37;;;;;;;;;;;;;;;11.07;68.59;101878.91;5097749;27;20031;-88
2022/05/20 00:54:06;;;;;;;;;;;;;;;11.04;68.74;101880.03;5092225;27;20908;-86
2022/05/20 00:57:03;;;;;;;;;;;;;;;11.01;68.75;101877.63;5072134;27;19934;-87
2022/05/20 00:59:34;;;;;;;;;;;;;;;10.91;69.03;101884.78;5086774;27;19938;-86
2022/05/20 01:02:02;;;;;;;;;;;;;;;10.87;69.22;101880.66;5087084;27;19936;-87
2022/05/20 01:04:29;;;;;;;;;;;;;;;10.84;69.38;101883.59;5087258;27;19997;-85
2022/05/20 01:06:56;;;;;;;;;;;;;;;10.78;69.51;101885.84;5088384;27;20306;-89
2022/05/20 01:09:43;;;;;;;;;;;;;;;10.82;69.44;101885.59;5084764;27;20395;-87
2022/05/20 01:12:09;;;;;;;;;;;;;;;10.82;69.26;101889.13;5083497;28;19920;-86
2022/05/20 01:14:34;;;;;;;;;;;;;;;10.56;70.11;101883.31;5123561;27;20368;-85
2022/05/20 01:16:59;;;;;;;;;;;;;;;10.70;69.94;101885.66;5101857;28;19962;-86
2022/05/20 01:19:37;;;;;;;;;;;;;;;10.56;70.13;101877.94;5124442;27;20008;-85
2022/05/20 01:22:08;;;;;;;;;;;;;;;10.51;70.34;101891.75;5111739;28;19931;-85
2022/05/20 01:24:35;;;;;;;;;;;;;;;10.47;70.45;101886.78;5107033;28;20434;-85
2022/05/20 01:27:06;;;;;;;;;;;;;;;10.35;70.87;101883.28;5124673;27;19904;-87
2022/05/20 01:29:43;;;;;;;;;;;;;;;10.38;70.92;101890.25;5120850;27;19922;-85
2022/05/20 01:32:10;;;;;;;;;;;;;;;10.38;71.08;101892.94;5134981;27;20352;-87
2022/05/20 01:34:51;;;;;;;;;;;;;;;10.31;71.24;101885.38;5128115;27;19919;-85
2022/05/20 01:37:22;;;;;;;;;;;;;;;10.17;71.82;101890.19;5111649;28;19935;-85
2022/05/20 01:39:59;;;;;;;;;;;;;;;10.30;71.50;101883.69;5113005;27;19916;-85
2022/05/20 01:42:31;;;;;;;;;;;;;;;10.26;71.50;101887.56;5111047;28;19957;-86
2022/05/20 01:44:59;;;;;;;;;;;;;;;10.18;71.91;101886.50;5082889;27;19920;-86
2022/05/20 01:47:42;;;;;;;;;;;;;;;10.34;71.33;101882.41;5112955;27;19932;-86
2022/05/20 01:50:24;;;;;;;;;;;;;;;10.22;71.70;101883.44;5125389;27;19927;-86
2022/05/20 01:53:12;;;;;;;;;;;;;;;10.30;71.42;101881.00;5109221;27;20324;-86
2022/05/20 01:55:56;;;;;;;;;;;;;;;10.27;71.68;101877.66;5113225;27;19926;-86
2022/05/20 01:58:48;;;;;;;;;;;;;;;10.26;71.65;101884.03;5112148;27;19950;-86
2022/05/20 02:01:16;;;;;;;;;;;;;;;10.22;71.69;101880.75;5103399;27;20331;-86
2022/05/20 02:03:46;;;;;;;;;;;;;;;10.33;71.23;101880.72;5110750;27;19974;-87
2022/05/20 02:06:49;;;;;;;;;;;;;;;10.36;71.23;101879.59;5115714;27;20398;-85
2022/05/20 02:09:21;;;;;;;;;;;;;;;10.18;71.91;101881.97;5119119;27;19919;-86
2022/05/20 02:11:47;;;;;;;;;;;;;;;10.12;71.98;101888.72;5117844;27;19927;-85
2022/05/20 02:14:15;;;;;;;;;;;;;;;10.12;72.10;101882.50;5117256;27;19919;-85
2022/05/20 02:16:50;;;;;;;;;;;;;;;9.96;72.58;101874.00;5134208;27;19942;-86
2022/05/20 02:19:30;;;;;;;;;;;;;;;9.96;72.64;101877.53;5132533;27;19931;-86
2022/05/20 02:22:02;;;;;;;;;;;;;;;9.91;72.77;101875.25;5138122;27;19924;-85
2022/05/20 02:24:31;;;;;;;;;;;;;;;9.89;72.79;101871.81;5140330;27;19927;-87
2022/05/20 02:27:08;;;;;;;;;;;;;;;9.98;72.55;101872.06;5118794;27;19983;-85
2022/05/20 02:29:59;;;;;;;;;;;;;;;9.98;72.53;101874.75;5125505;27;19931;-87
2022/05/20 02:32:36;;;;;;;;;;;;;;;9.87;72.97;101876.47;5122011;27;19926;-86
2022/05/20 02:35:02;;;;;;;;;;;;;;;9.88;72.96;101871.94;5096560;27;20303;-86
2022/05/20 02:37:34;;;;;;;;;;;;;;;9.91;72.84;101869.03;5114552;27;19938;-86
2022/05/20 02:40:01;;;;;;;;;;;;;;;10.01;72.27;101874.47;5121057;27;19927;-86
2022/05/20 02:42:33;;;;;;;;;;;;;;;9.99;72.50;101876.44;5138141;27;20014;-86
2022/05/20 02:45:01;;;;;;;;;;;;;;;9.93;72.72;101873.28;5122795;27;19959;-86
2022/05/20 02:47:31;;;;;;;;;;;;;;;9.93;72.58;101872.44;5131009;27;20018;-86
2022/05/20 02:49:59;;;;;;;;;;;;;;;9.92;72.86;101882.31;5129409;27;19919;-85
2022/05/20 02:52:38;;;;;;;;;;;;;;;10.10;72.18;101879.09;5134126;27;19927;-85
2022/05/20 02:55:05;;;;;;;;;;;;;;;10.18;71.80;101875.75;5134043;27;20010;-85
2022/05/20 02:57:31;;;;;;;;;;;;;;;10.07;72.06;101884.72;5117172;27;20022;-84
2022/05/20 03:05:30;;;;;;;;;;;;;;;10.05;72.09;101875.94;5132792;27;19926;-85
2022/05/20 03:08:11;;;;;;;;;;;;;;;10.07;72.01;101885.56;5093915;27;19954;-87
2022/05/20 03:10:45;;;;;;;;;;;;;;;10.00;72.42;101878.16;5118121;28;19919;-85
2022/05/20 03:13:12;;;;;;;;;;;;;;;10.12;72.13;101877.97;5110987;27;19919;-85
2022/05/20 03:15:39;;;;;;;;;;;;;;;10.25;71.58;101877.78;5103908;28;20314;-84
2022/05/20 03:18:05;;;;;;;;;;;;;;;10.28;71.31;101882.94;5103911;28;20368;-86
2022/05/20 03:20:34;;;;;;;;;;;;;;;10.20;71.55;101880.00;5112877;28;19939;-85
2022/05/20 03:23:06;;;;;;;;;;;;;;;10.29;71.37;101879.28;5108441;28;19933;-87
2022/05/20 03:25:34;;;;;;;;;;;;;;;10.24;71.37;101881.47;5106847;28;20014;-87
2022/05/20 03:28:01;;;;;;;;;;;;;;;10.26;71.40;101879.50;5082093;28;19928;-87
2022/05/20 03:30:28;;;;;;;;;;;;;;;10.40;71.20;101882.91;5131252;27;19924;-85
2022/05/20 03:33:02;;;;;;;;;;;;;;;10.51;70.50;101881.00;5103856;28;19924;-87
2022/05/20 03:35:32;;;;;;;;;;;;;;;10.45;70.71;101876.13;5107654;28;19931;-88
2022/05/20 03:38:15;;;;;;;;;;;;;;;10.48;70.67;101883.94;5114770;28;19923;-90
2022/05/20 03:40:42;;;;;;;;;;;;;;;10.53;70.34;101876.31;5128258;27;19946;-88
2022/05/20 03:43:12;;;;;;;;;;;;;;;10.51;70.46;101872.06;5115001;28;19920;-86
2022/05/20 03:45:42;;;;;;;;;;;;;;;10.46;70.64;101885.91;5104986;27;19928;-82
2022/05/20 03:48:12;;;;;;;;;;;;;;;10.56;69.97;101872.56;5106712;27;20555;-82
2022/05/20 03:50:42;;;;;;;;;;;;;;;10.63;70.03;101876.41;5108954;27;19928;-82
2022/05/20 03:53:11;;;;;;;;;;;;;;;10.68;70.02;101871.50;5105499;27;20339;-83
2022/05/20 03:55:36;;;;;;;;;;;;;;;10.63;70.03;101876.41;5116690;27;20326;-84
2022/05/20 03:58:01;;;;;;;;;;;;;;;10.87;69.25;101877.97;5111665;27;19928;-82
2022/05/20 04:00:31;;;;;;;;;;;;;;;10.81;69.28;101882.03;5108328;28;19988;-84
2022/05/20 04:02:56;;;;;;;;;;;;;;;10.85;69.14;101879.94;5106448;27;19920;-83
2022/05/20 04:05:22;;;;;;;;;;;;;;;10.97;68.91;101884.25;5121484;27;19920;-85
2022/05/20 04:07:48;;;;;;;;;;;;;;;10.99;69.70;101883.13;5108477;28;19924;-84
2022/05/20 04:10:13;;;;;;;;;;;;;;;11.04;69.63;101888.09;5109552;27;19923;-85
2022/05/20 04:12:41;;;;;;;;;;;;;;;11.27;68.77;101893.31;5111938;27;20006;-81
2022/05/20 04:15:16;;;;;;;;;;;;;;;11.41;67.98;101892.94;5126149;27;19948;-84
2022/05/20 04:17:42;;;;;;;;;;;;;;;11.56;68.43;101880.78;5134786;27;19923;-81
2022/05/20 04:20:07;;;;;;;;;;;;;;;11.67;67.76;101887.06;5108506;27;20332;-82
2022/05/20 04:22:36;;;;;;;;;;;;;;;11.86;66.45;101889.78;5100926;27;20267;-81
2022/05/20 04:25:03;;;;;;;;;;;;;;;11.93;65.78;101882.88;5110991;27;19934;-84
2022/05/20 04:27:32;;;;;;;;;;;;;;;12.37;64.95;101887.88;5098159;27;19927;-83
2022/05/20 04:30:00;;;;;;;;;;;;;;;12.72;63.22;101878.31;5126684;27;19925;-86
2022/05/20 04:32:26;;;;;;;;;;;;;;;13.04;62.15;101881.50;5121530;28;20452;-85
2022/05/20 04:34:53;;;;;;;;;;;;;;;13.29;60.80;101882.69;5120402;27;20010;-84
2022/05/20 04:37:23;;;;;;;;;;;;;;;13.52;59.57;101877.75;5138630;27;19914;-86
2022/05/20 04:39:52;;;;;;;;;;;;;;;13.85;58.82;101882.69;5161509;27;19934;-86
2022/05/20 04:47:51;;;;;;;;;;;;;;;14.49;56.07;101894.25;5135166;27;20019;-84
2022/05/20 04:50:17;;;;;;;;;;;;;;;14.80;55.07;101888.41;5131387;27;19915;-85
2022/05/20 04:52:43;;;;;;;;;;;;;;;15.10;54.03;101884.38;5137109;27;20346;-85
2022/05/20 04:55:11;;;;;;;;;;;;;;;15.19;53.76;101888.84;5128324;27;19950;-84
2022/05/20 04:57:38;;;;;;;;;;;;;;;15.52;53.46;101880.84;5116546;27;19919;-84
2022/05/20 05:00:13;;;;;;;;;;;;;;;15.74;53.04;101888.41;5117116;27;20022;-84
2022/05/20 05:02:42;;;;;;;;;;;;;;;15.92;52.50;101888.31;5120834;27;19919;-84
2022/05/20 05:05:08;;;;;;;;;;;;;;;16.18;52.26;101885.47;5126165;27;19930;-86
2022/05/20 05:07:39;;;;;;;;;;;;;;;16.36;51.59;101887.16;5120019;27;19922;-85
2022/05/20 05:10:04;;;;;;;;;;;;;;;16.57;50.84;101890.19;5128152;27;19945;-84
2022/05/20 05:12:30;;;;;;;;;;;;;;;16.64;50.13;101887.66;5136874;27;20390;-86
2022/05/20 05:14:59;;;;;;;;;;;;;;;16.87;49.89;101885.13;5127126;27;20445;-85
2022/05/20 05:20:22;;;;;;;;;;;;;;;17.29;49.15;101883.97;5146910;27;19930;-86
2022/05/20 05:22:55;;;;;;;;;;;;;;;17.33;49.21;101893.50;5116561;27;20377;-87
2022/05/20 05:25:54;;;;;;;;;;;;;;;17.49;48.70;101901.56;5127090;27;19924;-86
2022/05/20 05:28:22;;;;;;;;;;;;;;;17.78;48.83;101905.50;5139846;27;19991;-83
2022/05/20 05:30:52;;;;;;;;;;;;;;;18.14;48.43;101910.41;5143271;27;19919;-85
2022/05/20 05:33:19;;;;;;;;;;;;;;;18.24;47.36;101905.59;5165657;27;19919;-86
2022/05/20 05:35:50;;;;;;;;;;;;;;;18.50;47.33;101909.84;5114249;27;20026;-86
2022/05/20 05:38:16;;;;;;;;;;;;;;;18.61;47.32;101908.53;5121164;27;19976;-87
2022/05/20 05:40:43;;;;;;;;;;;;;;;18.81;46.50;101906.19;5125899;27;19919;-86
2022/05/20 05:43:13;;;;;;;;;;;;;;;18.87;46.08;101910.88;5143326;27;19923;-85
2022/05/20 05:45:41;;;;;;;;;;;;;;;19.03;46.02;101897.06;5128640;27;19920;-85
2022/05/20 05:48:15;;;;;;;;;;;;;;;19.19;45.60;101902.34;5152179;27;19915;-86
2022/05/20 05:50:50;;;;;;;;;;;;;;;19.46;45.08;101891.81;5124403;27;20006;-84
2022/05/20 05:53:31;;;;;;;;;;;;;;;19.64;44.77;101896.00;5126511;27;19923;-86
2022/05/20 05:56:19;;;;;;;;;;;;;;;19.72;44.63;101894.06;5142025;27;20382;-84
2022/05/20 05:58:48;;;;;;;;;;;;;;;19.92;44.84;101888.81;5102821;27;20469;-85
2022/05/20 06:01:17;;;;;;;;;;;;;;;20.02;44.95;101899.44;5095808;28;19977;-87
2022/05/20 06:03:44;;;;;;;;;;;;;;;20.15;44.13;101887.81;5106461;27;19922;-85
2022/05/20 06:06:16;;;;;;;;;;;;;;;20.33;44.13;101887.34;5114679;27;19919;-87
2022/05/20 06:08:42;;;;;;;;;;;;;;;20.44;44.03;101893.13;5134382;27;19920;-87
2022/05/20 06:11:09;;;;;;;;;;;;;;;20.76;43.39;101888.16;5123829;27;20275;-86
2022/05/20 06:13:48;;;;;;;;;;;;;;;21.07;42.62;101886.91;5133655;27;19999;-86
2022/05/20 06:16:22;;;;;;;;;;;;;;;21.26;41.73;101886.19;5100804;27;19930;-87
2022/05/20 06:18:48;;;;;;;;;;;;;;;21.51;41.88;101885.69;5136004;27;19923;-85
2022/05/20 06:21:21;;;;;;;;;;;;;;;21.89;41.04;101879.72;5127698;27;19923;-85
2022/05/20 06:24:05;;;;;;;;;;;;;;;22.32;39.84;101890.38;5132806;27;19926;-87
2022/05/20 06:26:33;;;;;;;;;;;;;;;22.60;39.31;101881.13;5136721;27;19989;-86
2022/05/20 06:28:59;;;;;;;;;;;;;;;22.83;38.89;101887.00;5134365;27;19989;-87
2022/05/20 06:31:27;;;;;;;;;;;;;;;22.98;38.22;101889.50;5160041;27;19915;-85
2022/05/20 06:33:52;;;;;;;;;;;;;;;23.08;37.73;101884.44;5131537;27;19930;-86
2022/05/20 06:42:03;;;;;;;;;;;;;;;23.52;36.07;101884.75;5072378;28;20000;-85
2022/05/20 06:44:32;;;;;;;;;;;;;;;23.46;36.50;101880.09;5138871;27;19926;-86
2022/05/20 06:47:12;;;;;;;;;;;;;;;23.73;35.67;101887.16;5137886;27;19919;-84
2022/05/20 06:49:38;;;;;;;;;;;;;;;23.62;35.96;101887.84;5111764;27;19942;-85
2022/05/20 06:52:09;;;;;;;;;;;;;;;23.90;35.74;101887.53;5095212;28;19923;-86
2022/05/20 06:54:35;;;;;;;;;;;;;;;23.91;35.49;101889.22;5114474;27;20060;-86
2022/05/20 06:57:08;;;;;;;;;;;;;;;23.91;35.99;101886.47;5115287;27;19919;-86
2022/05/20 06:59:33;;;;;;;;;;;;;;;24.19;35.13;101886.09;5139345;27;19919;-86
2022/05/20 07:02:04;;;;;;;;;;;;;;;24.48;34.76;101885.69;5117182;27;19915;-85
2022/05/20 07:04:36;;;;;;;;;;;;;;;24.55;33.25;101887.31;5119409;27;20284;-85
2022/05/20 07:07:01;;;;;;;;;;;;;;;24.59;33.71;101885.81;5132010;27;19922;-84
2022/05/20 07:09:30;;;;;;;;;;;;;;;24.47;33.50;101882.13;5131369;27;20010;-86
2022/05/20 07:11:56;;;;;;;;;;;;;;;24.81;33.23;101877.97;5085834;28;19920;-85
2022/05/20 07:14:24;;;;;;;;;;;;;;;24.87;32.90;101875.41;5121530;27;19923;-84
2022/05/20 07:16:54;;;;;;;;;;;;;;;25.10;32.96;101880.22;5137430;27;19923;-86
2022/05/20 07:19:21;;;;;;;;;;;;;;;25.06;32.60;101880.69;5139782;27;20236;-87
2022/05/20 07:21:49;;;;;;;;;;;;;;;25.43;32.37;101885.41;5079804;28;19920;-84
2022/05/20 07:24:16;;;;;;;;;;;;;;;25.69;32.29;101884.22;5119590;27;19915;-85
2022/05/20 07:26:47;;;;;;;;;;;;;;;25.95;31.16;101880.28;5137618;27;19919;-84
2022/05/20 07:29:14;;;;;;;;;;;;;;;25.95;31.63;101887.72;5129051;27;19919;-85
2022/05/20 07:31:39;;;;;;;;;;;;;;;25.77;31.44;101881.13;5091521;28;20403;-87
2022/05/20 07:34:07;;;;;;;;;;;;;;;26.15;31.31;101882.72;5132277;27;19919;-87
2022/05/20 07:36:38;;;;;;;;;;;;;;;26.43;31.20;101882.06;5135269;27;19964;-88
2022/05/20 07:39:04;;;;;;;;;;;;;;;26.66;30.48;101881.28;5149302;27;19944;-86
2022/05/20 07:41:36;;;;;;;;;;;;;;;26.74;30.32;101869.91;5106505;28;20063;-87
2022/05/20 07:44:04;;;;;;;;;;;;;;;27.25;29.51;101880.44;5133120;27;19914;-86
2022/05/20 07:46:30;;;;;;;;;;;;;;;27.66;29.05;101870.25;5102234;28;19923;-86
2022/05/20 07:48:58;;;;;;;;;;;;;;;27.66;29.07;101870.25;5110069;27;19920;-88
2022/05/20 07:51:26;;;;;;;;;;;;;;;27.97;28.39;101867.00;5111979;28;19919;-90
2022/05/20 07:53:57;;;;;;;;;;;;;;;28.02;28.29;101862.66;5123943;27;19951;-86
2022/05/20 07:56:33;;;;;;;;;;;;;;;28.03;28.34;101861.59;5108897;28;20451;-88
2022/05/20 07:58:59;;;;;;;;;;;;;;;28.36;27.98;101863.53;5114917;27;19957;-89
2022/05/20 08:01:28;;;;;;;;;;;;;;;28.23;27.90;101870.22;5109439;28;20314;-88
2022/05/20 08:07:02;;;;;;;;;;;;;;;28.59;27.13;101874.44;5124909;27;19926;-87
2022/05/20 08:09:27;;;;;;;;;;;;;;;28.54;27.21;101870.75;5129329;27;20376;-86
2022/05/20 08:12:00;;;;;;;;;;;;;;;28.80;26.32;101866.47;5106972;28;19923;-88
2022/05/20 08:14:43;;;;;;;;;;;;;;;29.30;26.33;101856.38;5130287;27;19919;-87
2022/05/20 08:17:24;;;;;;;;;;;;;;;29.51;25.61;101863.81;5108887;28;19927;-87
2022/05/20 08:19:52;;;;;;;;;;;;;;;29.82;25.34;101853.94;5134722;27;19933;-87
2022/05/20 08:22:25;;;;;;;;;;;;;;;29.86;25.33;101860.63;5116547;28;19920;-84
2022/05/20 08:24:57;;;;;;;;;;;;;;;30.02;25.46;101853.31;5146786;27;19991;-87
2022/05/20 08:27:32;;;;;;;;;;;;;;;30.46;24.81;101853.16;5109979;28;19916;-87
2022/05/20 08:30:03;;;;;;;;;;;;;;;30.80;24.21;101868.66;5123998;27;19936;-89
2022/05/20 08:32:40;;;;;;;;;;;;;;;31.31;23.36;101857.84;5115024;28;19980;-87
2022/05/20 08:35:06;;;;;;;;;;;;;;;30.89;23.71;101867.06;5107233;27;19915;-88
2022/05/20 08:37:36;;;;;;;;;;;;;;;30.70;23.78;101864.72;5124372;27;19962;-88
2022/05/20 08:40:38;;;;;;;;;;;;;;;30.90;23.71;101858.47;5128358;27;19920;-89
2022/05/20 08:43:04;;;;;;;;;;;;;;;30.87;23.59;101856.22;5102502;27;20359;-87
2022/05/20 08:45:40;;;;;;;;;;;;;;;;;;;;;
2022/05/20 08:48:07;;;;;;;;;;;;;;;31.53;22.98;101847.38;5156094;27;20375;-89
2022/05/20 08:50:48;;;;;;;;;;;;;;;32.47;22.53;101838.84;5110431;27;19915;-89
2022/05/20 08:53:17;;;;;;;;;;;;;;;32.78;22.01;101834.13;5138043;27;19952;-88
2022/05/20 08:56:06;;;;;;;;;;;;;;;33.26;21.25;101830.88;5121800;27;19922;-89
2022/05/20 08:58:41;;;;;;;;;;;;;;;33.51;20.68;101829.09;5119040;27;19916;-88
2022/05/20 09:01:08;;;;;;;;;;;;;;;33.65;20.54;101819.00;5135927;27;20366;-88
2022/05/20 09:03:34;;;;;;;;;;;;;;;33.96;20.64;101821.56;5152718;27;19919;-87
2022/05/20 09:06:13;;;;;;;;;;;;;;;34.19;20.06;101814.44;5105515;28;19973;-87
2022/05/20 09:08:44;;;;;;;;;;;;;;;34.57;19.58;101821.03;5127570;27;19929;-87
2022/05/20 09:11:18;;;;;;;;;;;;;;;34.87;18.65;101813.47;5129540;27;19919;-88
2022/05/20 09:16:35;;;;;;;;;;;;;;;35.96;17.49;101814.47;5128694;27;20360;-88
2022/05/20 09:19:40;;;;;;;;;;;;;;;35.58;17.45;101816.47;5130095;27;19935;-87
2022/05/20 09:22:15;;;;;;;;;;;;;;;35.07;17.89;101802.03;5126620;27;19922;-89
2022/05/20 09:24:41;;;;;;;;;;;;;;;36.27;16.92;101792.44;5122376;27;19927;-87
2022/05/20 09:27:10;;;;;;;;;;;;;;;36.48;16.54;101792.03;5135516;27;19927;-88
2022/05/20 09:29:37;;;;;;;;;;;;;;;37.00;15.88;101786.25;5127339;27;20392;-88
2022/05/20 09:32:21;;;;;;;;;;;;;;;36.37;16.05;101793.38;5097732;28;19916;-88
2022/05/20 09:34:48;;;;;;;;;;;;;;;37.04;15.20;101790.94;5121758;27;19968;-88
2022/05/20 09:37:20;;;;;;;;;;;;;;;36.46;15.80;101789.56;5131345;28;19927;-88
2022/05/20 09:39:47;;;;;;;;;;;;;;;36.36;15.90;101786.94;5132764;27;19920;-88
2022/05/20 09:42:45;;;;;;;;;;;;;;;37.80;14.83;101781.91;5097033;28;19916;-87
2022/05/20 09:45:22;;;;;;;;;;;;;;;37.74;14.72;101777.56;5135798;27;19926;-88
2022/05/20 09:47:53;;;;;;;;;;;;;;;37.78;14.92;101770.19;5150772;27;19947;-89
2022/05/20 09:50:27;;;;;;;;;;;;;;;38.79;13.91;101770.56;5126028;27;19922;-88
2022/05/20 09:53:00;;;;;;;;;;;;;;;39.32;13.28;101760.28;5115881;28;20306;-88
2022/05/20 09:55:36;;;;;;;;;;;;;;;39.96;12.58;101768.84;5122624;27;20274;-88
2022/05/20 09:58:17;;;;;;;;;;;;;;;39.48;12.84;101758.66;5097302;27;19970;-88
2022/05/20 10:00:47;;;;;;;;;;;;;;;39.25;12.96;101755.13;5121438;27;20422;-87
2022/05/20 10:03:34;;;;;;;;;;;;;;;38.69;13.22;101752.03;5118053;27;19942;-87
2022/05/20 10:06:21;;;;;;;;;;;;;;;39.17;12.93;101736.25;5146459;27;19916;-87
2022/05/20 10:09:05;;;;;;;;;;;;;;;38.30;13.30;101742.44;5112361;27;19924;-88
2022/05/20 10:11:51;;;;;;;;;;;;;;;38.82;13.01;101739.00;5096376;28;19927;-87
2022/05/20 10:14:48;;;;;;;;;;;;;;;39.26;12.90;101735.09;5134876;27;19930;-88
2022/05/20 10:17:32;;;;;;;;;;;;;;;39.78;12.53;101730.63;5141583;27;19915;-87
2022/05/20 10:20:17;;;;;;;;;;;;;;;38.70;13.31;101727.56;5136623;27;19915;-88
2022/05/20 10:23:04;;;;;;;;;;;;;;;37.50;14.12;101731.00;5117696;27;20406;-87
2022/05/20 10:25:31;;;;;;;;;;;;;;;38.38;13.54;101722.00;5118715;27;19924;-89
2022/05/20 10:32:33;;;;;;;;;;;;;;;38.16;13.55;101725.69;5116924;27;19915;-88
2022/05/20 10:34:02;;;;;;;;;;;;;;;38.49;13.33;101710.47;5068089;28;20453;-89
2022/05/20 10:36:44;;;;;;;;;;;;;;;38.28;13.03;101705.41;5073868;28;20435;-86
2022/05/20 10:39:38;;;;;;;;;;;;;;;37.11;14.19;101707.28;5083318;28;19920;-86
2022/05/20 10:42:11;;;;;;;;;;;;;;;37.00;14.31;101688.19;4975006;28;20461;-87
2022/05/20 10:50:36;;;;;;;;;;;;;;;35.29;16.49;101689.69;5009119;28;19975;-88
2022/05/20 10:53:32;;;;;;;;;;;;;;;35.22;16.42;101691.22;5064533;28;19951;-90
2022/05/20 10:56:16;;;;;;;;;;;;;;;34.95;16.68;101687.09;5068975;28;20016;-87
2022/05/20 10:59:10;;;;;;;;;;;;;;;34.29;17.18;101679.53;5082654;28;19916;-88
2022/05/20 11:01:58;;;;;;;;;;;;;;;33.50;18.15;101682.47;5094477;27;19915;-87
2022/05/20 11:04:46;;;;;;;;;;;;;;;33.51;18.41;101679.41;5147708;27;19915;-87
2022/05/20 11:07:22;;;;;;;;;;;;;;;33.14;18.79;101671.59;5134550;27;19966;-87
2022/05/20 11:10:20;;;;;;;;;;;;;;;32.25;19.41;101668.63;5114524;27;20061;-88
2022/05/20 11:12:47;;;;;;;;;;;;;;;32.42;19.26;101669.13;5051298;28;19963;-88
2022/05/20 11:15:45;;;;;;;;;;;;;;;32.08;20.07;101660.63;5050333;28;19921;-88
2022/05/20 11:18:19;;;;;;;;;;;;;;;31.19;20.72;101663.66;5034587;28;20396;-88
2022/05/20 11:21:23;;;;;;;;;;;;;;;31.20;21.06;101661.69;5040521;28;19924;-87
2022/05/20 11:24:11;;;;;;;;;;;;;;;31.18;21.28;101648.06;5035158;28;20417;-89
2022/05/20 11:26:56;;;;;;;;;;;;;;;30.60;21.94;101650.13;5053561;28;19917;-86
2022/05/20 11:29:27;;;;;;;;;;;;;;;31.00;21.72;101651.38;5097830;28;19920;-89
2022/05/20 11:32:18;;;;;;;;;;;;;;;30.92;21.97;101650.81;5140319;28;19916;-87
2022/05/20 11:35:05;;;;;;;;;;;;;;;30.65;21.87;101652.94;5139137;28;19986;-87
2022/05/20 11:37:49;;;;;;;;;;;;;;;30.94;21.69;101653.31;5107367;28;19916;-86
2022/05/20 11:40:22;;;;;;;;;;;;;;;30.82;21.57;101649.94;5141806;27;19935;-87
2022/05/20 11:43:07;;;;;;;;;;;;;;;30.57;22.32;101637.63;5116760;28;20324;-87
2022/05/20 11:45:39;;;;;;;;;;;;;;;30.11;24.46;101637.41;5103566;28;20003;-86
2022/05/20 11:48:25;;;;;;;;;;;;;;;30.14;24.78;101636.03;5102369;28;19916;-86
2022/05/20 11:51:00;;;;;;;;;;;;;;;29.99;25.55;101622.88;5100865;28;19943;-90
2022/05/20 11:53:47;;;;;;;;;;;;;;;30.12;25.19;101627.97;5107249;28;19982;-86
2022/05/20 11:56:33;;;;;;;;;;;;;;;29.67;25.38;101634.88;5139839;28;19915;-87
2022/05/20 11:59:42;;;;;;;;;;;;;;;29.30;25.36;101624.56;5132488;27;19995;-87
2022/05/20 12:02:38;;;;;;;;;;;;;;;29.07;25.51;101620.22;5097295;28;19935;-88
2022/05/20 12:05:13;;;;;;;;;;;;;;;29.25;25.42;101619.81;5113656;28;19923;-86
2022/05/20 12:07:47;;;;;;;;;;;;;;;29.50;25.25;101617.53;5096450;28;19926;-86
2022/05/20 12:10:30;;;;;;;;;;;;;;;29.50;24.70;101614.75;5131721;27;19984;-87
2022/05/20 12:13:15;;;;;;;;;;;;;;;29.39;24.49;101611.09;5115543;27;19916;-86
2022/05/20 12:15:43;;;;;;;;;;;;;;;29.80;24.31;101616.94;5141491;27;19999;-87
2022/05/20 12:24:26;;;;;;;;;;;;;;;29.44;24.06;101602.81;5073636;28;19928;-87
2022/05/20 12:26:53;;;;;;;;;;;;;;;29.22;24.93;101600.13;5057718;28;19964;-88
2022/05/20 12:29:49;;;;;;;;;;;;;;;29.20;25.50;101602.34;5104554;28;19934;-87
2022/05/20 12:32:33;;;;;;;;;;;;;;;29.13;25.40;101597.03;5116280;27;20020;-86
2022/05/20 12:35:18;;;;;;;;;;;;;;;28.71;25.83;101594.91;5142488;27;19991;-86
2022/05/20 12:37:44;;;;;;;;;;;;;;;28.24;26.99;101587.13;5135883;27;19947;-87
2022/05/20 12:40:19;;;;;;;;;;;;;;;28.44;27.11;101581.00;5150963;27;19926;-87
2022/05/20 12:43:08;;;;;;;;;;;;;;;28.30;27.34;101576.97;5143001;27;20033;-87
2022/05/20 12:45:48;;;;;;;;;;;;;;;27.93;27.59;101583.97;5137456;27;19919;-86
2022/05/20 12:48:20;;;;;;;;;;;;;;;28.26;27.46;101576.66;5137982;27;20040;-87
2022/05/20 12:51:07;;;;;;;;;;;;;;;28.27;27.78;101577.47;5138188;27;19899;-88
2022/05/20 12:53:34;;;;;;;;;;;;;;;27.69;28.11;101576.94;5153227;27;20487;-88
2022/05/20 12:56:00;;;;;;;;;;;;;;;27.75;28.12;101574.00;5128157;27;19942;-87
2022/05/20 12:58:49;;;;;;;;;;;;;;;27.43;29.14;101572.94;5135794;27;19926;-87
2022/05/20 13:01:43;;;;;;;;;;;;;;;27.33;29.05;101579.97;5134916;27;19926;-87
2022/05/20 13:04:19;;;;;;;;;;;;;;;27.04;29.71;101565.38;5142707;27;19941;-87
2022/05/20 13:06:54;;;;;;;;;;;;;;;27.09;29.81;101562.69;5130414;27;19951;-87
2022/05/20 13:09:22;;;;;;;;;;;;;;;27.12;29.62;101567.72;5133703;27;19962;-86
2022/05/20 13:12:07;;;;;;;;;;;;;;;27.20;30.16;101565.66;5132949;27;19967;-86
2022/05/20 13:14:36;;;;;;;;;;;;;;;27.07;29.63;101564.88;5149044;27;19919;-87
2022/05/20 13:17:04;;;;;;;;;;;;;;;27.16;29.93;101566.13;5121076;27;19949;-88
2022/05/20 13:19:39;;;;;;;;;;;;;;;27.15;30.36;101561.69;5152458;27;19940;-87
2022/05/20 13:22:08;;;;;;;;;;;;;;;26.97;31.10;101553.63;5123976;27;20498;-88
2022/05/20 13:24:39;;;;;;;;;;;;;;;26.78;31.61;101552.19;5141295;27;19917;-87
2022/05/20 13:27:17;;;;;;;;;;;;;;;26.49;32.00;101547.50;5137773;27;19915;-87
2022/05/20 13:29:45;;;;;;;;;;;;;;;25.84;31.76;101553.25;5127821;27;19926;-86
2022/05/20 13:32:20;;;;;;;;;;;;;;;25.25;32.86;101554.09;5102849;28;19962;-86
2022/05/20 13:35:08;;;;;;;;;;;;;;;25.10;32.96;101548.19;5146644;27;19927;-87
2022/05/20 13:37:54;;;;;;;;;;;;;;;25.22;32.68;101545.47;5083990;27;19919;-87
2022/05/20 13:40:30;;;;;;;;;;;;;;;25.18;33.29;101542.34;5150691;27;19918;-89
2022/05/20 13:43:04;;;;;;;;;;;;;;;25.12;32.90;101537.75;5170431;27;20346;-85
2022/05/20 13:51:06;;;;;;;;;;;;;;;25.04;33.94;101535.38;5107024;28;20362;-87
2022/05/20 13:53:32;;;;;;;;;;;;;;;24.91;33.93;101525.44;5112822;27;20052;-86
2022/05/20 13:56:02;;;;;;;;;;;;;;;24.58;34.52;101531.41;5125362;27;19993;-87
2022/05/20 13:58:31;;;;;;;;;;;;;;;24.34;34.98;101530.44;5115084;27;20323;-86